Time;durP1;ratioP1;P1;durP2;ratioP2;P2;SDS_P1;SDS_P2;PMS_P1;PMS_P2;Temp;Humidity;BMP_temperature;BMP_pressure;BME280_temperature;BME280_humidity;BME280_pressure;Samples;Min_cycle;Max_cycle;Signal;HPM_P1;HPM_P2
2022/07/20 00:00:16;;;;;;;4.11;2.81;;;;;;;18.34;57.22;101122.80;455880;116;922788;-77
2022/07/20 00:01:20;;;;;;;7.04;2.95;;;;;;;18.33;57.23;101123.05;455824;116;922488;-78
2022/07/20 00:02:24;;;;;;;3.47;2.92;;;;;;;18.31;57.18;101127.97;455709;116;923017;-78
2022/07/20 00:03:27;;;;;;;4.00;2.66;;;;;;;18.29;57.22;101124.64;455868;116;923397;-78
2022/07/20 00:04:30;;;;;;;5.81;2.92;;;;;;;18.27;57.28;101124.89;455916;116;923046;-79
2022/07/20 00:05:34;;;;;;;4.84;2.94;;;;;;;18.27;57.40;101121.29;455919;116;923135;-78
2022/07/20 00:06:37;;;;;;;4.07;3.14;;;;;;;18.26;57.49;101122.38;455716;116;923050;-79
2022/07/20 00:07:40;;;;;;;4.61;2.79;;;;;;;18.26;57.47;101127.89;455044;116;923081;-78
2022/07/20 00:11:26;;;;;;;5.19;2.97;;;;;;;18.24;57.59;101122.65;454936;116;922556;-78
2022/07/20 00:12:29;;;;;;;4.12;3.12;;;;;;;18.23;57.54;101125.66;455074;116;922952;-78
2022/07/20 00:13:33;;;;;;;3.28;2.78;;;;;;;18.22;57.59;101133.09;454980;116;922828;-78
2022/07/20 00:14:36;;;;;;;3.81;2.49;;;;;;;18.22;57.64;101130.33;455071;116;923081;-78
2022/07/20 00:15:40;;;;;;;4.61;2.59;;;;;;;18.23;57.64;101125.66;455066;116;922486;-79
2022/07/20 00:16:44;;;;;;;4.19;2.86;;;;;;;18.23;57.58;101120.97;454969;116;923011;-78
2022/07/20 00:17:47;;;;;;;4.36;3.12;;;;;;;18.24;57.54;101127.33;455030;116;923047;-78
2022/07/20 00:18:50;;;;;;;5.53;2.80;;;;;;;18.24;57.58;101119.05;455082;116;922550;-78
2022/07/20 00:19:54;;;;;;;3.08;2.74;;;;;;;18.26;57.61;101122.38;454943;116;922594;-78
2022/07/20 00:20:57;;;;;;;4.99;2.96;;;;;;;18.26;57.62;101117.69;455023;116;922564;-78
2022/07/20 00:22:00;;;;;;;3.84;2.53;;;;;;;18.29;57.60;101119.13;455065;116;923018;-77
2022/07/20 00:23:04;;;;;;;5.14;2.91;;;;;;;18.30;57.52;101113.33;455094;116;922540;-78
2022/07/20 00:24:07;;;;;;;2.94;2.58;;;;;;;18.30;57.50;101112.52;454927;116;922900;-78
2022/07/20 00:25:10;;;;;;;5.09;3.02;;;;;;;18.30;57.40;101109.77;455008;116;930589;-78
2022/07/20 00:26:13;;;;;;;6.78;2.85;;;;;;;18.29;57.34;101110.84;455009;116;923003;-78
2022/07/20 00:27:16;;;;;;;3.57;2.77;;;;;;;18.29;57.35;101108.08;455089;116;922736;-78
2022/07/20 00:28:19;;;;;;;4.30;2.99;;;;;;;18.28;57.29;101110.00;455077;116;922498;-78
2022/07/20 00:29:23;;;;;;;4.34;3.54;;;;;;;18.28;57.25;101114.69;455028;116;923105;-78
2022/07/20 00:30:26;;;;;;;4.50;3.79;;;;;;;18.27;57.29;101108.33;454724;116;923162;-78
2022/07/20 00:31:29;;;;;;;5.28;3.83;;;;;;;18.28;57.28;101114.69;453753;117;925597;-78
2022/07/20 00:32:38;;;;;;;5.42;3.19;;;;;;;18.28;57.10;101115.52;453703;117;922981;-78
2022/07/20 00:33:41;;;;;;;4.77;3.51;;;;;;;18.28;57.00;101117.45;453862;116;922574;-79
2022/07/20 00:34:44;;;;;;;10.65;3.42;;;;;;;18.25;56.93;101109.66;455916;116;923393;-78
2022/07/20 00:35:47;;;;;;;5.72;3.51;;;;;;;18.23;56.94;101115.45;455879;116;922959;-78
2022/07/20 00:36:50;;;;;;;5.02;3.41;;;;;;;18.21;56.94;101114.02;455922;116;922717;-78
2022/07/20 00:37:53;;;;;;;4.83;3.70;;;;;;;18.18;56.95;101114.53;455857;116;923031;-78
2022/07/20 00:38:56;;;;;;;4.87;3.79;;;;;;;18.16;57.02;101111.18;455827;116;923039;-78
2022/07/20 00:40:00;;;;;;;5.46;3.83;;;;;;;18.13;57.07;101104.25;455823;116;923079;-78
2022/07/20 00:41:03;;;;;;;6.19;3.91;;;;;;;18.12;57.14;101107.26;455913;116;922944;-78
2022/07/20 00:42:06;;;;;;;4.24;3.69;;;;;;;18.11;57.18;101111.94;455820;116;922486;-78
2022/07/20 00:43:09;;;;;;;9.73;4.37;;;;;;;18.11;57.23;101108.34;455877;116;922507;-78
2022/07/20 00:44:12;;;;;;;4.87;3.39;;;;;;;18.12;57.31;101110.02;455813;116;922500;-78
2022/07/20 00:45:15;;;;;;;4.66;3.56;;;;;;;18.12;57.37;101101.73;455885;116;922497;-78
2022/07/20 00:46:19;;;;;;;4.68;3.95;;;;;;;18.12;57.32;101110.02;455793;116;922422;-78
2022/07/20 00:47:22;;;;;;;4.94;3.43;;;;;;;18.11;57.20;101109.18;455930;116;922923;-78
2022/07/20 00:48:25;;;;;;;5.00;3.29;;;;;;;18.12;57.24;101110.02;455813;116;922934;-78
2022/07/20 00:49:28;;;;;;;9.18;3.68;;;;;;;18.10;57.26;101099.22;455851;116;922402;-78
2022/07/20 00:50:31;;;;;;;5.37;3.57;;;;;;;18.11;57.42;101100.06;455934;116;922535;-78
2022/07/20 00:51:35;;;;;;;6.78;3.49;;;;;;;18.13;57.40;101106.17;455874;116;922491;-78
2022/07/20 00:52:38;;;;;;;3.75;3.22;;;;;;;18.14;57.40;101102.33;455822;116;923217;-78
2022/07/20 00:53:42;;;;;;;5.74;3.63;;;;;;;18.14;57.39;101107.85;455710;116;930612;-78
2022/07/20 00:54:48;;;;;;;5.39;4.08;;;;;;;18.14;57.25;101105.91;455752;116;923232;-78
2022/07/20 00:55:50;;;;;;;4.07;3.50;;;;;;;18.13;57.21;101100.66;455680;116;922512;-78
2022/07/20 00:56:54;;;;;;;4.59;2.87;;;;;;;18.12;57.14;101098.98;455918;116;923510;-78
2022/07/20 00:57:57;;;;;;;4.29;2.92;;;;;;;18.11;57.15;101100.06;455836;116;923122;-78
2022/07/20 00:59:06;;;;;;;4.26;3.32;;;;;;;18.10;57.27;101093.70;455918;116;923219;-78
2022/07/20 01:00:10;;;;;;;3.46;2.46;;;;;;;18.11;57.38;101100.06;455718;116;922599;-78
2022/07/20 01:01:15;;;;;;;4.68;2.72;;;;;;;18.09;57.26;101092.02;455716;116;922529;-78
2022/07/20 01:02:18;;;;;;;3.48;2.64;;;;;;;18.10;57.23;101104.74;455819;116;922869;-78
2022/07/20 01:03:21;;;;;;;5.30;2.74;;;;;;;18.09;57.21;101096.70;455929;116;923266;-78
2022/07/20 01:04:24;;;;;;;5.78;2.59;;;;;;;18.08;57.22;101095.06;455907;116;923031;-78
2022/07/20 01:05:27;;;;;;;2.98;2.60;;;;;;;18.06;57.33;101103.58;456041;116;923021;-79
2022/07/20 01:06:32;;;;;;;2.91;2.59;;;;;;;18.05;57.36;101098.30;455840;116;923238;-78
2022/07/20 01:07:37;;;;;;;4.22;2.52;;;;;;;18.05;57.45;101101.06;455844;116;923096;-78
2022/07/20 01:08:40;;;;;;;4.36;2.68;;;;;;;18.05;57.55;101098.30;455731;116;930489;-79
2022/07/20 01:09:45;;;;;;;2.82;2.28;;;;;;;18.06;57.64;101103.58;455964;116;923435;-79
2022/07/20 01:10:48;;;;;;;4.95;2.15;;;;;;;18.06;57.54;101099.98;455807;116;922646;-78
2022/07/20 01:11:52;;;;;;;2.68;2.22;;;;;;;18.05;57.61;101101.91;455859;116;922580;-78
2022/07/20 01:12:55;;;;;;;6.51;2.31;;;;;;;18.06;57.69;101100.82;455846;116;922456;-78
2022/07/20 01:14:06;;;;;;;2.86;1.88;;;;;;;18.06;57.75;101095.30;455861;116;923022;-78
2022/07/20 01:15:10;;;;;;;5.17;1.98;;;;;;;18.08;57.77;101100.58;450517;116;922522;-78
2022/07/20 01:16:13;;;;;;;4.65;2.02;;;;;;;18.09;57.82;101091.19;449362;117;922635;-78
2022/07/20 01:17:16;;;;;;;2.59;1.89;;;;;;;18.10;57.69;101098.38;449433;117;923032;-78
2022/07/20 01:18:20;;;;;;;3.49;1.81;;;;;;;18.11;57.66;101103.66;449475;118;923178;-79
2022/07/20 01:19:23;;;;;;;3.80;1.91;;;;;;;18.11;57.68;101100.06;449448;118;922556;-79
2022/07/20 01:20:29;;;;;;;3.72;1.88;;;;;;;18.11;57.55;101098.14;449454;117;922426;-78
2022/07/20 01:21:33;;;;;;;6.60;1.62;;;;;;;18.11;57.55;101100.06;449333;118;922580;-78
2022/07/20 01:22:36;;;;;;;1.84;1.56;;;;;;;18.10;57.53;101098.38;449406;118;923006;-78
2022/07/20 01:23:39;;;;;;;3.31;1.94;;;;;;;18.11;57.56;101094.54;449480;118;923079;-78
2022/07/20 01:24:42;;;;;;;2.33;1.44;;;;;;;18.13;57.47;101095.98;449544;117;922512;-78
2022/07/20 01:25:45;;;;;;;3.92;1.73;;;;;;;18.12;57.42;101098.98;449399;117;922482;-78
2022/07/20 01:26:48;;;;;;;3.58;1.96;;;;;;;18.13;57.37;101100.66;449550;118;922979;-78
2022/07/20 01:27:56;;;;;;;4.20;1.81;;;;;;;18.11;57.28;101098.14;449503;118;922642;-78
2022/07/20 01:28:59;;;;;;;5.25;1.65;;;;;;;18.09;57.21;101102.23;449291;118;922546;-78
2022/07/20 01:30:03;;;;;;;3.58;1.90;;;;;;;18.06;57.20;101099.98;452684;116;922782;-78
2022/07/20 01:31:07;;;;;;;2.37;1.63;;;;;;;18.02;57.21;101107.09;447968;118;923056;-78
2022/07/20 01:32:10;;;;;;;3.19;1.88;;;;;;;17.99;57.26;101102.91;448076;118;922960;-78
2022/07/20 01:33:13;;;;;;;2.43;1.86;;;;;;;17.96;57.31;101099.82;448162;118;923319;-79
2022/07/20 01:34:16;;;;;;;2.81;1.72;;;;;;;17.92;57.32;101096.70;453638;116;922496;-78
2022/07/20 01:35:19;;;;;;;2.77;1.58;;;;;;;17.90;57.41;101096.98;455982;116;923029;-78
2022/07/20 01:36:22;;;;;;;2.98;2.06;;;;;;;17.88;57.60;101090.87;455895;116;923126;-78
2022/07/20 01:37:25;;;;;;;2.07;1.79;;;;;;;17.88;57.44;101096.38;455955;116;922979;-77
2022/07/20 01:38:28;;;;;;;3.24;2.11;;;;;;;17.88;57.44;101096.38;455888;116;922974;-78
2022/07/20 01:39:31;;;;;;;3.58;2.08;;;;;;;17.89;57.97;101098.06;455908;116;923333;-78
2022/07/20 01:40:35;;;;;;;2.53;2.18;;;;;;;17.90;57.90;101098.91;455934;116;922839;-78
2022/07/20 01:41:38;;;;;;;2.11;1.83;;;;;;;17.88;57.81;101096.38;455949;116;922507;-78
2022/07/20 01:42:41;;;;;;;3.49;2.29;;;;;;;17.87;57.75;101099.38;455903;116;923247;-78
2022/07/20 01:43:44;;;;;;;4.62;2.21;;;;;;;17.84;57.83;101088.86;455828;116;923107;-78
2022/07/20 01:44:47;;;;;;;4.72;1.76;;;;;;;17.81;57.81;101092.95;455935;116;922665;-78
2022/07/20 01:45:50;;;;;;;2.64;2.24;;;;;;;17.79;57.87;101095.14;455930;116;922532;-78
2022/07/20 01:46:53;;;;;;;5.22;2.37;;;;;;;17.77;57.92;101090.94;455920;116;922681;-78
2022/07/20 01:47:56;;;;;;;3.36;2.12;;;;;;;17.76;57.95;101094.78;455942;116;922634;-78
2022/07/20 01:48:59;;;;;;;3.08;2.10;;;;;;;17.74;58.06;101091.45;455970;116;923114;-77
2022/07/20 01:50:03;;;;;;;3.31;2.04;;;;;;;17.71;58.13;101095.53;456001;116;922619;-78
2022/07/20 01:51:08;;;;;;;6.29;2.42;;;;;;;17.70;58.22;101091.09;455690;116;923037;-78
2022/07/20 01:52:11;;;;;;;2.47;2.11;;;;;;;17.69;58.34;101089.45;455974;116;922575;-78
2022/07/20 01:53:14;;;;;;;3.21;2.44;;;;;;;17.68;58.45;101085.02;455949;116;922433;-78
2022/07/20 01:54:17;;;;;;;3.22;1.97;;;;;;;17.70;58.58;101087.50;455968;116;922481;-79
2022/07/20 01:55:20;;;;;;;4.41;2.01;;;;;;;17.70;58.60;101091.09;455967;116;923016;-78
2022/07/20 01:56:25;;;;;;;3.66;2.23;;;;;;;17.72;58.55;101091.70;455682;116;922491;-78
2022/07/20 01:57:28;;;;;;;4.44;2.09;;;;;;;17.73;58.50;101087.02;455956;116;922625;-78
2022/07/20 01:58:31;;;;;;;3.08;2.23;;;;;;;17.73;58.46;101092.54;455904;116;922460;-78
2022/07/20 01:59:34;;;;;;;4.82;2.52;;;;;;;17.71;58.42;101087.27;455924;116;922851;-78
2022/07/20 02:00:37;;;;;;;4.17;2.45;;;;;;;17.69;58.36;101091.37;455919;116;922915;-78
2022/07/20 02:01:40;;;;;;;4.29;2.37;;;;;;;17.68;58.38;101087.77;455945;116;922684;-78
2022/07/20 02:02:44;;;;;;;6.75;2.07;;;;;;;17.66;58.43;101086.34;455838;116;922529;-78
2022/07/20 02:03:47;;;;;;;5.56;2.62;;;;;;;17.64;58.47;101089.33;455768;116;930596;-78
2022/07/20 02:04:50;;;;;;;3.32;2.82;;;;;;;17.63;58.48;101086.84;455899;116;922518;-78
2022/07/20 02:05:53;;;;;;;3.96;2.84;;;;;;;17.62;58.58;101087.93;455882;116;922533;-78
2022/07/20 02:06:56;;;;;;;3.55;2.44;;;;;;;17.61;58.73;101092.61;455582;116;922511;-78
2022/07/20 02:07:59;;;;;;;4.18;3.02;;;;;;;17.61;58.78;101084.33;455038;116;922943;-78
2022/07/20 02:09:03;;;;;;;3.95;3.37;;;;;;;17.60;58.81;101088.17;455061;116;922641;-78
2022/07/20 02:10:07;;;;;;;3.39;2.47;;;;;;;17.60;58.76;101096.44;454994;116;922595;-78
2022/07/20 02:11:10;;;;;;;2.59;2.36;;;;;;;17.59;58.78;101094.73;454867;116;930381;-78
2022/07/20 02:12:13;;;;;;;4.71;2.47;;;;;;;17.59;58.86;101094.73;455069;116;922451;-78
2022/07/20 02:13:16;;;;;;;5.44;3.05;;;;;;;17.60;58.87;101090.09;455027;116;922519;-78
2022/07/20 02:14:19;;;;;;;5.71;2.67;;;;;;;17.61;58.95;101086.25;455038;116;922531;-78
2022/07/20 02:16:43;;;;;;;3.31;2.33;;;;;;;17.64;59.04;101099.55;447928;118;922521;-77
2022/07/20 02:17:47;;;;;;;3.86;2.83;;;;;;;17.63;58.87;101090.45;448110;118;923002;-77
2022/07/20 02:18:52;;;;;;;2.35;1.91;;;;;;;17.63;58.88;101090.45;448114;118;922831;-78
2022/07/20 02:19:56;;;;;;;3.32;2.07;;;;;;;17.64;58.81;101080.25;447948;118;922558;-77
2022/07/20 02:20:59;;;;;;;3.34;2.75;;;;;;;17.63;58.75;101084.93;448129;118;922580;-78
2022/07/20 02:22:03;;;;;;;3.01;2.45;;;;;;;17.62;58.73;101083.25;448118;118;923220;-77
2022/07/20 02:23:08;;;;;;;3.31;2.56;;;;;;;17.62;58.76;101085.17;448090;118;922991;-78
2022/07/20 02:24:11;;;;;;;3.14;2.43;;;;;;;17.62;58.86;101076.90;447916;118;922632;-77
2022/07/20 02:25:14;;;;;;;3.56;2.27;;;;;;;17.63;58.91;101078.58;448126;118;922483;-77
2022/07/20 02:26:19;;;;;;;3.29;2.36;;;;;;;17.63;58.85;101082.17;447885;118;922639;-78
2022/07/20 02:27:22;;;;;;;3.86;2.14;;;;;;;17.63;58.74;101082.17;448165;118;922993;-77
2022/07/20 02:28:25;;;;;;;6.37;2.76;;;;;;;17.62;58.78;101080.50;448098;118;922548;-78
2022/07/20 02:29:28;;;;;;;2.92;2.18;;;;;;;17.61;58.78;101083.49;448253;118;923935;-78
2022/07/20 02:30:33;;;;;;;4.95;2.85;;;;;;;17.60;58.79;101082.66;450441;117;922503;-79
2022/07/20 02:31:36;;;;;;;3.26;2.29;;;;;;;17.58;58.88;101082.05;453729;117;922512;-77
2022/07/20 02:32:39;;;;;;;5.59;2.94;;;;;;;17.59;58.90;101091.97;453760;117;923007;-78
2022/07/20 02:33:42;;;;;;;3.00;2.71;;;;;;;17.59;58.99;101085.66;454064;116;922603;-78
2022/07/20 02:34:45;;;;;;;3.78;2.58;;;;;;;17.59;59.03;101083.70;455902;116;922526;-78
2022/07/20 02:35:48;;;;;;;3.89;2.22;;;;;;;17.59;58.95;101091.17;455919;116;922534;-78
2022/07/20 02:36:51;;;;;;;4.95;2.80;;;;;;;17.59;59.06;101088.41;455899;116;922561;-77
2022/07/20 02:37:54;;;;;;;3.11;2.34;;;;;;;17.59;59.06;101078.19;455905;116;922522;-77
2022/07/20 02:38:57;;;;;;;3.34;2.41;;;;;;;17.60;59.13;101088.17;455876;116;923076;-77
2022/07/20 02:40:00;;;;;;;4.03;2.91;;;;;;;17.62;59.22;101082.41;455909;116;922496;-78
2022/07/20 02:41:04;;;;;;;6.46;2.37;;;;;;;17.65;59.20;101081.90;455838;116;923046;-78
2022/07/20 02:42:08;;;;;;;2.69;2.27;;;;;;;17.65;59.09;101077.22;455810;116;922585;-77
2022/07/20 02:43:11;;;;;;;5.66;2.59;;;;;;;17.67;58.94;101083.34;455803;116;923057;-77
2022/07/20 02:44:14;;;;;;;8.26;2.39;;;;;;;17.68;58.84;101078.66;455819;116;930486;-77
2022/07/20 02:45:17;;;;;;;4.03;2.70;;;;;;;17.69;58.83;101083.94;455875;116;922460;-77
2022/07/20 02:46:21;;;;;;;3.44;2.48;;;;;;;17.70;58.73;101079.23;455798;116;922583;-77
2022/07/20 02:47:25;;;;;;;4.08;2.37;;;;;;;17.69;58.67;101083.94;455881;116;930491;-77
2022/07/20 02:48:28;;;;;;;5.81;3.06;;;;;;;17.68;58.67;101082.26;455928;116;923159;-77
2022/07/20 02:49:31;;;;;;;4.44;2.94;;;;;;;17.68;58.82;101081.42;455865;116;922502;-78
2022/07/20 02:50:38;;;;;;;4.27;2.87;;;;;;;17.68;58.83;101087.77;455884;116;922952;-77
2022/07/20 02:51:41;;;;;;;4.08;2.82;;;;;;;17.69;58.78;101083.09;455727;116;922501;-77
2022/07/20 02:52:44;;;;;;;7.40;2.97;;;;;;;17.68;58.76;101085.02;455950;116;922475;-77
2022/07/20 02:53:47;;;;;;;5.24;2.66;;;;;;;17.69;58.68;101085.86;455878;116;922905;-77
2022/07/20 02:54:50;;;;;;;3.33;2.56;;;;;;;17.66;58.69;101086.34;455920;116;922448;-78
2022/07/20 02:55:53;;;;;;;4.46;2.26;;;;;;;17.65;58.68;101088.25;455938;116;922518;-78
2022/07/20 02:56:56;;;;;;;4.28;2.58;;;;;;;17.65;58.80;101092.94;455912;116;922931;-78
2022/07/20 02:57:59;;;;;;;3.06;2.58;;;;;;;17.65;58.78;101088.25;455940;116;922964;-78
2022/07/20 02:59:02;;;;;;;4.50;2.51;;;;;;;17.66;58.72;101084.42;455898;116;922877;-77
2022/07/20 03:00:07;;;;;;;3.13;2.64;;;;;;;17.66;58.73;101087.17;455912;116;922889;-78
2022/07/20 03:01:10;;;;;;;2.94;2.28;;;;;;;17.68;58.73;101095.21;455719;116;922647;-78
2022/07/20 03:02:13;;;;;;;4.11;2.65;;;;;;;17.67;58.70;101088.85;455905;116;922939;-78
2022/07/20 03:03:16;;;;;;;4.54;2.19;;;;;;;17.69;58.62;101086.70;455888;116;922998;-78
2022/07/20 03:04:19;;;;;;;3.98;2.27;;;;;;;17.70;58.67;101087.50;455954;116;922508;-78
2022/07/20 03:05:23;;;;;;;2.89;2.28;;;;;;;17.71;58.65;101092.77;455936;116;922507;-78
2022/07/20 03:06:26;;;;;;;3.45;2.47;;;;;;;17.72;58.58;101094.45;455863;116;922716;-78
2022/07/20 03:07:30;;;;;;;3.03;2.22;;;;;;;17.73;58.57;101090.62;455136;116;922950;-78
2022/07/20 03:08:33;;;;;;;4.97;2.17;;;;;;;17.75;58.45;101098.66;454999;116;922914;-78
2022/07/20 03:09:36;;;;;;;2.81;1.90;;;;;;;17.76;58.37;101094.78;455033;116;923474;-78
2022/07/20 03:10:39;;;;;;;3.26;1.72;;;;;;;17.77;58.36;101097.30;455062;116;923038;-78
2022/07/20 03:11:42;;;;;;;2.81;1.50;;;;;;;17.77;58.24;101094.54;455080;116;922600;-79
2022/07/20 03:12:45;;;;;;;4.06;2.44;;;;;;;17.79;58.27;101092.38;455075;116;923019;-78
2022/07/20 03:13:48;;;;;;;4.61;1.57;;;;;;;17.81;58.28;101097.63;455048;116;923051;-78
2022/07/20 03:14:51;;;;;;;2.24;1.77;;;;;;;17.82;58.25;101094.63;455064;116;922978;-78
2022/07/20 03:15:54;;;;;;;2.99;1.36;;;;;;;17.86;58.28;101095.78;455055;116;922960;-78
2022/07/20 03:16:58;;;;;;;3.12;1.58;;;;;;;17.89;58.26;101098.06;455121;116;922540;-78
2022/07/20 03:18:01;;;;;;;2.34;1.60;;;;;;;17.92;58.19;101093.95;455055;116;922533;-78
2022/07/20 03:19:04;;;;;;;2.02;1.36;;;;;;;17.96;58.19;101094.30;455015;116;923073;-78
2022/07/20 03:20:15;;;;;;;2.51;1.57;;;;;;;17.99;58.20;101093.78;454434;116;922976;-78
2022/07/20 03:21:18;;;;;;;3.02;1.36;;;;;;;18.03;58.15;101094.98;454556;116;922880;-78
2022/07/20 03:22:21;;;;;;;3.64;1.29;;;;;;;18.08;58.07;101093.14;455073;116;922594;-78
2022/07/20 03:23:24;;;;;;;2.20;1.20;;;;;;;18.13;58.01;101093.22;455069;116;923062;-78
2022/07/20 03:24:27;;;;;;;2.98;1.34;;;;;;;18.18;57.88;101089.69;455058;116;923395;-78
2022/07/20 03:25:30;;;;;;;1.16;1.03;;;;;;;18.22;57.72;101093.61;455070;116;922883;-78
2022/07/20 03:26:34;;;;;;;2.71;1.48;;;;;;;18.27;57.62;101091.77;455069;116;922461;-78
2022/07/20 03:27:37;;;;;;;2.43;1.41;;;;;;;18.31;57.50;101094.84;445065;119;923202;-78
2022/07/20 03:28:40;;;;;;;2.16;1.18;;;;;;;18.34;57.45;101086.91;444970;119;923057;-78
2022/07/20 03:29:43;;;;;;;5.49;1.86;;;;;;;18.43;57.01;101089.22;445910;118;930672;-78
2022/07/20 03:30:47;;;;;;;3.36;1.27;;;;;;;18.43;57.01;101089.22;444514;118;922965;-78
2022/07/20 03:31:50;;;;;;;3.50;1.21;;;;;;;18.47;56.97;101095.92;443873;119;923021;-78
2022/07/20 03:32:54;;;;;;;2.62;1.34;;;;;;;18.50;56.83;101092.64;443811;119;922961;-78
2022/07/20 03:33:57;;;;;;;3.17;1.35;;;;;;;18.53;56.78;101090.20;433235;120;923214;-78
2022/07/20 03:35:00;;;;;;;3.01;1.49;;;;;;;18.56;56.64;101088.90;433840;120;923117;-78
2022/07/20 03:36:04;;;;;;;1.94;1.17;;;;;;;18.58;56.52;101095.82;440645;120;922730;-78
2022/07/20 03:37:07;;;;;;;1.87;1.36;;;;;;;18.62;56.41;101091.48;440554;120;922892;-79
2022/07/20 03:38:10;;;;;;;2.46;1.37;;;;;;;18.64;56.28;101089.28;440649;120;930737;-78
2022/07/20 03:39:13;;;;;;;4.26;1.45;;;;;;;18.68;56.27;101084.09;440633;118;922697;-78
2022/07/20 03:40:17;;;;;;;1.50;1.13;;;;;;;18.71;56.17;101087.17;440636;120;923113;-78
2022/07/20 03:41:20;;;;;;;2.31;1.20;;;;;;;18.75;56.07;101085.56;440663;120;922457;-78
2022/07/20 03:42:23;;;;;;;1.56;1.09;;;;;;;18.80;55.92;101089.50;440703;120;922493;-78
2022/07/20 03:43:26;;;;;;;7.90;1.59;;;;;;;18.83;55.89;101088.97;440650;120;923043;-78
2022/07/20 03:44:29;;;;;;;2.41;1.36;;;;;;;18.85;55.88;101090.41;440680;118;922485;-78
2022/07/20 03:45:32;;;;;;;2.62;1.48;;;;;;;18.89;55.80;101094.31;440700;120;922476;-78
2022/07/20 03:46:36;;;;;;;2.89;1.47;;;;;;;18.93;55.74;101089.94;440597;120;923164;-79
2022/07/20 03:47:39;;;;;;;2.22;1.54;;;;;;;19.01;55.48;101097.78;440666;120;923056;-79
2022/07/20 03:48:42;;;;;;;3.20;2.06;;;;;;;19.01;55.48;101097.78;434289;120;922611;-78
2022/07/20 03:49:45;;;;;;;2.06;1.39;;;;;;;19.04;55.45;101096.41;440747;118;922662;-78
2022/07/20 03:50:48;;;;;;;3.35;1.66;;;;;;;19.09;55.42;101102.00;447726;118;922559;-78
2022/07/20 03:51:51;;;;;;;2.36;1.67;;;;;;;19.13;55.42;101089.36;447652;118;922564;-78
2022/07/20 03:52:55;;;;;;;3.92;1.59;;;;;;;19.18;55.40;101092.18;447655;118;922512;-77
2022/07/20 03:53:58;;;;;;;4.30;1.52;;;;;;;19.24;55.34;101090.30;447534;118;922771;-77
2022/07/20 03:55:01;;;;;;;2.68;1.68;;;;;;;19.28;55.22;101097.81;447673;118;922524;-77
2022/07/20 03:56:05;;;;;;;4.47;1.68;;;;;;;19.32;55.12;101090.66;447573;118;922490;-78
2022/07/20 03:57:08;;;;;;;3.24;1.75;;;;;;;19.35;55.01;101092.89;447711;118;922626;-78
2022/07/20 03:58:11;;;;;;;2.95;1.94;;;;;;;19.40;54.84;101086.61;447661;118;922537;-78
2022/07/20 03:59:14;;;;;;;4.83;1.56;;;;;;;19.42;54.82;101093.53;447660;118;922594;-77
2022/07/20 04:00:19;;;;;;;3.85;1.67;;;;;;;19.45;54.70;101095.83;447605;118;922505;-77
2022/07/20 04:01:22;;;;;;;3.85;1.97;;;;;;;19.47;54.68;101084.47;447632;118;922511;-78
2022/07/20 04:02:25;;;;;;;2.77;2.51;;;;;;;19.49;54.63;101094.20;447669;118;923034;-78
2022/07/20 04:03:28;;;;;;;7.97;2.26;;;;;;;19.51;54.59;101091.18;447662;118;922851;-80
2022/07/20 04:04:32;;;;;;;3.47;2.26;;;;;;;19.54;54.60;101093.41;447658;118;923082;-76
2022/07/20 04:05:35;;;;;;;6.24;2.17;;;;;;;19.57;54.54;101092.90;447623;118;923145;-76
2022/07/20 04:06:38;;;;;;;3.11;1.99;;;;;;;19.58;54.54;101095.38;447288;118;930476;-76
2022/07/20 04:07:42;;;;;;;4.73;2.17;;;;;;;19.61;54.52;101090.44;445041;119;922864;-77
2022/07/20 04:08:48;;;;;;;3.21;1.88;;;;;;;19.64;54.52;101095.43;444950;119;923724;-77
2022/07/20 04:09:50;;;;;;;5.33;2.13;;;;;;;19.67;54.47;101094.92;444897;119;922848;-78
2022/07/20 04:10:53;;;;;;;4.34;2.42;;;;;;;19.69;54.37;101087.17;445114;119;922542;-79
2022/07/20 04:11:56;;;;;;;2.12;1.77;;;;;;;19.70;54.41;101089.69;445094;119;922982;-78
2022/07/20 04:12:59;;;;;;;2.96;1.89;;;;;;;19.73;54.29;101088.34;445044;119;922539;-78
2022/07/20 04:14:02;;;;;;;3.57;1.89;;;;;;;19.74;54.30;101079.75;444967;119;923127;-78
2022/07/20 04:15:06;;;;;;;5.29;1.64;;;;;;;19.76;54.33;101083.10;446956;118;922580;-78
2022/07/20 04:16:10;;;;;;;3.64;1.87;;;;;;;19.79;54.43;101079.80;447559;118;923876;-78
2022/07/20 04:17:14;;;;;;;4.79;1.69;;;;;;;19.82;54.41;101083.98;447669;118;922835;-76
2022/07/20 04:18:17;;;;;;;3.11;1.87;;;;;;;19.86;54.37;101085.11;447704;118;922656;-77
2022/07/20 04:19:20;;;;;;;3.04;2.03;;;;;;;19.90;54.38;101089.05;447686;118;923040;-77
2022/07/20 04:20:23;;;;;;;5.51;1.74;;;;;;;19.92;54.29;101079.36;447747;118;922583;-77
2022/07/20 04:21:26;;;;;;;2.57;1.79;;;;;;;19.95;54.19;101080.78;447682;118;922659;-77
2022/07/20 04:22:29;;;;;;;2.74;1.91;;;;;;;19.96;54.21;101083.27;447687;118;922973;-77
2022/07/20 04:23:32;;;;;;;3.09;1.62;;;;;;;20.00;54.06;101089.12;447738;118;923045;-77
2022/07/20 04:24:36;;;;;;;2.08;1.82;;;;;;;20.00;54.13;101086.36;447709;118;922556;-77
2022/07/20 04:25:39;;;;;;;5.08;1.91;;;;;;;20.03;54.02;101084.97;447621;118;923013;-78
2022/07/20 04:26:42;;;;;;;4.15;2.18;;;;;;;20.05;53.99;101080.02;447745;118;922576;-77
2022/07/20 04:27:45;;;;;;;2.18;1.77;;;;;;;20.05;53.95;101075.32;453189;116;922808;-78
2022/07/20 04:28:48;;;;;;;2.41;1.77;;;;;;;20.07;53.94;101083.37;455760;116;922858;-77
2022/07/20 04:29:52;;;;;;;3.28;1.88;;;;;;;20.09;53.94;101079.22;452058;116;922530;-77
2022/07/20 04:30:55;;;;;;;3.37;1.83;;;;;;;20.11;53.95;101079.80;454062;116;922350;-78
2022/07/20 04:31:58;;;;;;;5.79;2.06;;;;;;;20.13;53.88;101083.11;453691;117;922683;-77
2022/07/20 04:33:01;;;;;;;2.49;1.71;;;;;;;20.15;53.82;101080.09;453629;117;922493;-77
2022/07/20 04:34:04;;;;;;;3.08;1.89;;;;;;;20.18;53.85;101071.27;454717;116;923061;-77
2022/07/20 04:35:08;;;;;;;2.81;1.79;;;;;;;20.21;53.94;101079.86;455846;116;922520;-78
2022/07/20 04:36:12;;;;;;;3.23;1.74;;;;;;;20.25;53.84;101082.92;455652;116;923054;-77
2022/07/20 04:37:15;;;;;;;2.86;1.56;;;;;;;20.26;53.78;101077.13;455812;116;922698;-77
2022/07/20 04:38:18;;;;;;;2.59;1.31;;;;;;;20.28;53.59;101079.64;455810;116;922489;-79
2022/07/20 04:39:22;;;;;;;3.75;1.89;;;;;;;20.29;53.58;101079.34;455714;116;922707;-78
2022/07/20 04:40:28;;;;;;;2.48;1.44;;;;;;;20.33;53.49;101082.47;447477;118;923025;-78
2022/07/20 04:41:33;;;;;;;7.77;1.64;;;;;;;20.36;53.23;101077.22;447775;116;922905;-77
2022/07/20 04:42:36;;;;;;;3.47;1.39;;;;;;;20.38;53.09;101079.73;455775;116;922482;-77
2022/07/20 04:43:39;;;;;;;2.44;1.32;;;;;;;20.38;52.99;101072.25;455741;116;922596;-77
2022/07/20 04:44:42;;;;;;;2.97;1.57;;;;;;;20.40;52.85;101080.27;455741;116;922853;-77
2022/07/20 04:45:45;;;;;;;2.58;1.89;;;;;;;20.42;52.82;101071.70;455751;116;922483;-78
2022/07/20 04:46:48;;;;;;;2.02;1.34;;;;;;;20.40;52.86;101078.34;455801;116;922484;-77
2022/07/20 04:47:52;;;;;;;2.45;1.22;;;;;;;20.42;52.88;101074.48;455724;116;922801;-77
2022/07/20 04:48:55;;;;;;;1.96;1.81;;;;;;;20.44;52.76;101077.82;455773;116;923255;-77
2022/07/20 04:49:58;;;;;;;1.67;1.31;;;;;;;20.44;52.71;101069.52;455741;116;923055;-77
2022/07/20 04:51:01;;;;;;;3.02;1.54;;;;;;;20.44;52.68;101072.28;455810;116;923061;-77
2022/07/20 04:52:05;;;;;;;3.05;1.43;;;;;;;20.42;52.81;101069.77;447849;118;922927;-78
2022/07/20 04:53:10;;;;;;;2.53;1.46;;;;;;;20.41;52.89;101070.87;447550;116;923179;-77
2022/07/20 04:54:13;;;;;;;7.94;1.92;;;;;;;20.40;52.99;101066.42;447679;118;923041;-77
2022/07/20 04:55:16;;;;;;;2.46;1.74;;;;;;;20.37;53.02;101070.58;448219;116;922665;-78